createdAt,value
2017-12-16T00:00:03.623Z,23.07
2017-12-16T00:02:32.025Z,21.93
2017-12-16T00:05:00.428Z,22.00
2017-12-16T00:07:28.807Z,21.03
2017-12-16T00:09:57.217Z,21.27
2017-12-16T00:12:25.584Z,23.17
2017-12-16T00:14:53.938Z,22.17
2017-12-16T00:17:22.289Z,22.00
2017-12-16T00:19:50.665Z,23.00
2017-12-16T00:22:19.010Z,22.30
2017-12-16T00:24:47.865Z,21.90
2017-12-16T00:27:16.257Z,21.30
2017-12-16T00:29:46.289Z,21.73
2017-12-16T00:32:14.738Z,23.83
2017-12-16T00:34:43.116Z,21.50
2017-12-16T00:37:11.473Z,22.10
2017-12-16T00:39:39.873Z,21.63
2017-12-16T00:42:08.260Z,21.83
2017-12-16T00:44:36.633Z,22.27
2017-12-16T00:47:04.993Z,21.90
2017-12-16T00:49:33.378Z,23.40
2017-12-16T00:52:01.729Z,21.80
2017-12-16T00:54:30.077Z,21.20
2017-12-16T00:56:58.443Z,22.07
2017-12-16T00:59:26.816Z,21.47
2017-12-16T01:01:55.192Z,23.67
2017-12-16T01:04:23.575Z,22.50
2017-12-16T01:06:51.934Z,25.10
2017-12-16T01:09:20.323Z,23.83
2017-12-16T01:11:48.691Z,24.83
2017-12-16T01:14:17.036Z,24.10
2017-12-16T01:16:45.401Z,22.03
2017-12-16T01:19:14.180Z,24.03
2017-12-16T01:21:42.941Z,23.07
2017-12-16T01:24:11.323Z,22.30
2017-12-16T01:26:39.796Z,22.37
2017-12-16T01:29:08.184Z,25.40
2017-12-16T01:31:36.545Z,23.33
2017-12-16T01:37:32.672Z,24.03
2017-12-16T01:40:01.079Z,23.40
2017-12-16T01:42:29.492Z,24.00
2017-12-16T01:44:58.246Z,26.30
2017-12-16T01:47:26.629Z,25.90
2017-12-16T01:49:55.001Z,24.43
2017-12-16T01:52:23.376Z,24.80
2017-12-16T01:54:51.996Z,26.80
2017-12-16T01:57:20.923Z,25.00
2017-12-16T01:59:49.433Z,24.30
2017-12-16T02:02:17.795Z,24.13
2017-12-16T02:04:46.194Z,24.33
2017-12-16T02:07:14.557Z,24.27
2017-12-16T02:09:42.927Z,25.23
2017-12-16T02:12:11.328Z,26.80
2017-12-16T02:14:39.704Z,25.83
2017-12-16T02:17:08.084Z,25.90
2017-12-16T02:19:36.441Z,24.23
2017-12-16T02:22:04.821Z,25.97
2017-12-16T02:24:33.293Z,25.60
2017-12-16T02:27:01.653Z,25.30
2017-12-16T02:29:30.490Z,24.20
2017-12-16T02:31:58.871Z,23.43
2017-12-16T02:34:27.221Z,22.37
2017-12-16T02:36:56.550Z,22.17
2017-12-16T02:39:24.936Z,22.53
2017-12-16T02:41:53.416Z,23.40
2017-12-16T02:44:21.760Z,23.53
2017-12-16T02:46:50.138Z,23.93
2017-12-16T02:49:18.562Z,23.10
2017-12-16T02:51:46.881Z,25.13
2017-12-16T02:54:15.256Z,22.57
2017-12-16T02:56:44.009Z,26.07
2017-12-16T02:59:12.363Z,24.13
2017-12-16T03:01:40.744Z,23.77
2017-12-16T03:04:09.120Z,23.37
2017-12-16T03:06:37.470Z,23.60
2017-12-16T03:09:05.853Z,22.40
2017-12-16T03:11:34.213Z,21.07
2017-12-16T03:14:02.960Z,24.03
2017-12-16T03:16:31.433Z,23.27
2017-12-16T03:18:59.812Z,25.40
2017-12-16T03:21:28.153Z,24.63
2017-12-16T03:23:56.600Z,25.13
2017-12-16T03:26:25.051Z,25.10
2017-12-16T03:28:53.392Z,23.83
2017-12-16T03:31:21.762Z,24.20
2017-12-16T03:33:50.114Z,24.63
2017-12-16T03:36:18.465Z,25.23
2017-12-16T03:38:46.836Z,23.77
2017-12-16T03:41:15.180Z,26.17
2017-12-16T03:43:43.637Z,23.63
2017-12-16T03:46:11.996Z,27.27
2017-12-16T03:48:40.339Z,24.70
2017-12-16T03:51:08.704Z,25.53
2017-12-16T03:53:37.057Z,24.60
2017-12-16T03:56:05.904Z,23.30
2017-12-16T03:58:34.284Z,30.80
2017-12-16T04:01:02.666Z,25.57
2017-12-16T04:03:31.032Z,25.67
2017-12-16T04:05:59.386Z,25.27
2017-12-16T04:08:27.753Z,26.07
2017-12-16T04:10:56.100Z,23.93
2017-12-16T04:13:24.440Z,24.50
2017-12-16T04:15:52.797Z,26.50
2017-12-16T04:18:21.147Z,24.67
2017-12-16T04:20:50.066Z,24.00
2017-12-16T04:23:18.884Z,23.03
2017-12-16T04:25:47.733Z,26.47
2017-12-16T04:28:16.088Z,25.07
2017-12-16T04:30:44.428Z,24.43
2017-12-16T04:33:12.813Z,24.73
2017-12-16T04:35:41.160Z,25.60
2017-12-16T04:38:09.510Z,25.77
2017-12-16T04:40:38.257Z,25.47
2017-12-16T04:43:06.625Z,25.70
2017-12-16T04:45:35.802Z,25.47
2017-12-16T04:48:04.148Z,23.50
2017-12-16T04:50:32.992Z,24.43
2017-12-16T04:53:01.361Z,25.30
2017-12-16T04:55:29.756Z,23.47
2017-12-16T04:57:58.144Z,24.80
2017-12-16T05:00:26.514Z,24.67
2017-12-16T05:02:54.884Z,22.77
2017-12-16T05:05:23.247Z,24.97
2017-12-16T05:07:51.616Z,25.53
2017-12-16T05:10:20.022Z,25.13
2017-12-16T05:12:48.368Z,26.40
2017-12-16T05:15:16.728Z,25.33
2017-12-16T05:17:45.166Z,26.33
2017-12-16T05:20:13.525Z,25.40
2017-12-16T05:22:41.899Z,25.87
2017-12-16T05:25:10.261Z,23.03
2017-12-16T05:27:38.604Z,26.07
2017-12-16T05:30:06.961Z,25.90
2017-12-16T05:32:35.325Z,25.60
2017-12-16T05:35:03.713Z,26.60
2017-12-16T05:37:32.083Z,26.63
2017-12-16T05:40:00.468Z,24.30
2017-12-16T05:42:28.855Z,25.60
2017-12-16T05:44:57.203Z,25.00
2017-12-16T05:47:25.568Z,24.70
2017-12-16T05:49:53.923Z,25.67
2017-12-16T05:52:22.769Z,26.33
2017-12-16T05:54:51.127Z,23.23
2017-12-16T05:57:19.472Z,26.13
2017-12-16T05:59:48.321Z,26.53
2017-12-16T06:02:16.678Z,24.90
2017-12-16T06:04:45.081Z,25.60
2017-12-16T06:07:13.479Z,25.07
2017-12-16T06:09:41.816Z,25.10
2017-12-16T06:12:10.208Z,24.13
2017-12-16T06:14:38.560Z,24.77
2017-12-16T06:17:06.973Z,24.10
2017-12-16T06:19:35.328Z,26.07
2017-12-16T06:22:03.731Z,26.47
2017-12-16T06:24:32.104Z,25.10
2017-12-16T06:27:00.453Z,24.00
2017-12-16T06:29:28.816Z,23.57
2017-12-16T06:31:57.656Z,25.13
2017-12-16T06:34:26.027Z,23.73
2017-12-16T06:36:54.432Z,25.20
2017-12-16T06:39:22.789Z,23.77
2017-12-16T06:41:51.140Z,23.00
2017-12-16T06:44:19.582Z,23.50
2017-12-16T06:46:47.933Z,24.17
2017-12-16T06:49:16.309Z,22.53
2017-12-16T06:51:44.662Z,23.20
2017-12-16T06:54:13.043Z,24.40
2017-12-16T06:56:41.431Z,24.90
2017-12-16T06:59:09.787Z,23.53
2017-12-16T07:01:38.156Z,22.60
2017-12-16T07:04:06.585Z,24.47
2017-12-16T07:06:34.924Z,22.53
2017-12-16T07:09:03.911Z,24.80
2017-12-16T07:11:32.275Z,23.93
2017-12-16T07:14:01.204Z,26.00
2017-12-16T07:16:29.544Z,23.93
2017-12-16T07:18:58.337Z,24.03
2017-12-16T07:21:26.857Z,25.70
2017-12-16T07:23:55.200Z,25.20
2017-12-16T07:26:23.565Z,27.43
2017-12-16T07:28:52.413Z,26.07
2017-12-16T07:31:20.762Z,26.10
2017-12-16T07:33:49.155Z,26.27
2017-12-16T07:36:17.529Z,24.90
2017-12-16T07:38:45.932Z,26.10
2017-12-16T07:41:14.288Z,26.83
2017-12-16T07:43:42.696Z,27.17
2017-12-16T07:46:11.056Z,26.60
2017-12-16T07:48:39.400Z,28.17
2017-12-16T07:51:07.837Z,27.53
2017-12-16T07:53:36.182Z,25.70
2017-12-16T07:56:04.573Z,27.43
2017-12-16T07:58:33.030Z,24.97
2017-12-16T08:01:01.383Z,26.63
2017-12-16T08:03:29.745Z,25.03
2017-12-16T08:05:58.109Z,28.30
2017-12-16T08:08:26.456Z,25.63
2017-12-16T08:10:54.849Z,24.13
2017-12-16T08:13:23.259Z,22.63
2017-12-16T08:15:51.758Z,24.27
2017-12-16T08:18:30.310Z,25.77
2017-12-16T08:20:58.660Z,24.73
2017-12-16T08:23:27.031Z,25.10
2017-12-16T08:25:55.772Z,24.93
2017-12-16T08:28:24.114Z,24.33
2017-12-16T08:30:52.531Z,25.00
2017-12-16T08:33:20.880Z,26.70
2017-12-16T08:35:49.262Z,26.07
2017-12-16T08:38:17.648Z,26.37
2017-12-16T08:40:46.010Z,26.73
2017-12-16T08:43:14.364Z,26.20
2017-12-16T08:45:43.197Z,28.70
2017-12-16T08:48:11.589Z,24.70
2017-12-16T08:50:39.939Z,27.33
2017-12-16T08:53:08.339Z,24.90
2017-12-16T08:55:36.689Z,26.13
2017-12-16T08:58:05.072Z,26.10
2017-12-16T09:00:33.435Z,26.80
2017-12-16T09:03:02.263Z,24.33
2017-12-16T09:05:30.621Z,24.07
2017-12-16T09:07:58.991Z,23.80
2017-12-16T09:10:27.331Z,24.07
2017-12-16T09:12:55.706Z,23.80
2017-12-16T09:15:24.056Z,23.57
2017-12-16T09:17:52.420Z,20.77
2017-12-16T09:20:21.659Z,21.07
2017-12-16T09:22:50.019Z,23.40
2017-12-16T09:25:19.228Z,22.67
2017-12-16T09:27:47.595Z,21.10
2017-12-16T09:30:15.941Z,21.70
2017-12-16T09:32:44.301Z,21.60
2017-12-16T09:35:13.127Z,21.23
2017-12-16T09:37:41.520Z,21.37
2017-12-16T09:40:09.896Z,21.80
2017-12-16T09:42:38.235Z,20.03
2017-12-16T09:45:06.652Z,23.00
2017-12-16T09:47:35.054Z,44.80
2017-12-16T09:50:03.470Z,22.50
2017-12-16T09:52:31.820Z,20.83
2017-12-16T09:55:00.187Z,23.83
2017-12-16T09:57:28.699Z,23.43
2017-12-16T09:59:57.023Z,21.57
2017-12-16T10:02:25.391Z,21.97
2017-12-16T10:04:53.779Z,21.90
2017-12-16T10:07:22.172Z,22.93
2017-12-16T10:09:50.513Z,22.90
2017-12-16T10:12:18.920Z,22.53
2017-12-16T10:14:47.277Z,23.53
2017-12-16T10:17:15.619Z,25.60
2017-12-16T10:19:44.053Z,26.37
2017-12-16T10:22:12.429Z,24.10
2017-12-16T10:24:40.857Z,26.30
2017-12-16T10:27:09.607Z,26.77
2017-12-16T10:29:37.955Z,27.80
2017-12-16T10:32:06.318Z,26.50
2017-12-16T10:34:34.667Z,27.30
2017-12-16T10:37:03.035Z,27.80
2017-12-16T10:39:31.387Z,24.67
2017-12-16T10:41:59.719Z,27.83
2017-12-16T10:44:28.459Z,28.97
2017-12-16T10:46:56.828Z,29.90
2017-12-16T10:49:25.202Z,28.33
2017-12-16T10:51:53.547Z,29.27
2017-12-16T10:54:22.291Z,28.80
2017-12-16T10:56:50.659Z,28.27
2017-12-16T10:59:19.017Z,29.50
2017-12-16T11:01:47.452Z,28.00
2017-12-16T11:04:15.813Z,28.63
2017-12-16T11:06:44.160Z,29.40
2017-12-16T11:09:12.499Z,29.30
2017-12-16T11:11:41.338Z,28.63
2017-12-16T11:14:09.679Z,29.37
2017-12-16T11:16:38.142Z,29.43
2017-12-16T11:19:06.993Z,29.83
2017-12-16T11:21:35.352Z,32.00
2017-12-16T11:24:03.695Z,26.93
2017-12-16T11:26:32.468Z,27.00
2017-12-16T11:29:00.816Z,26.33
2017-12-16T11:31:29.159Z,24.67
2017-12-16T11:33:57.516Z,26.33
2017-12-16T11:36:25.855Z,25.70
2017-12-16T11:38:54.341Z,21.53
2017-12-16T11:41:22.713Z,22.67
2017-12-16T11:43:51.069Z,23.90
2017-12-16T11:46:19.456Z,24.00
2017-12-16T11:48:47.830Z,22.13
2017-12-16T11:51:16.164Z,20.80
2017-12-16T11:53:44.894Z,22.10
2017-12-16T11:56:13.263Z,23.17
2017-12-16T11:58:41.605Z,21.33
2017-12-16T12:01:10.459Z,21.73
2017-12-16T12:03:38.930Z,20.13
2017-12-16T12:06:07.340Z,20.57
2017-12-16T12:08:35.720Z,20.10
2017-12-16T12:11:04.067Z,20.20
2017-12-16T12:13:32.414Z,23.37
2017-12-16T12:16:00.772Z,21.77
2017-12-16T12:18:29.195Z,20.90
2017-12-16T12:20:57.546Z,21.73
2017-12-16T12:23:25.905Z,22.00
2017-12-16T12:25:54.740Z,21.27
2017-12-16T12:28:23.100Z,23.63
2017-12-16T12:30:51.497Z,20.93
2017-12-16T12:33:19.852Z,20.83
2017-12-16T12:35:48.200Z,21.73
2017-12-16T12:38:16.545Z,22.80
2017-12-16T12:40:44.900Z,22.53
2017-12-16T12:43:13.276Z,24.50
2017-12-16T12:45:41.616Z,22.30
2017-12-16T12:48:10.052Z,21.53
2017-12-16T12:50:38.395Z,23.47
2017-12-16T12:53:06.753Z,24.03
2017-12-16T12:55:35.097Z,22.33
2017-12-16T12:58:03.458Z,21.80
2017-12-16T13:00:31.788Z,20.37
2017-12-16T13:03:00.229Z,23.63
2017-12-16T13:05:28.590Z,23.30
2017-12-16T13:07:56.980Z,23.07
2017-12-16T13:10:25.346Z,26.07
2017-12-16T13:12:53.853Z,22.50
2017-12-16T13:15:22.240Z,24.70
2017-12-16T13:17:50.916Z,21.97
2017-12-16T13:20:19.367Z,22.90
2017-12-16T13:22:47.745Z,24.77
2017-12-16T13:25:16.144Z,22.07
2017-12-16T13:27:44.515Z,25.67
2017-12-16T13:30:12.870Z,24.33
2017-12-16T13:32:41.248Z,24.40
2017-12-16T13:35:09.608Z,23.73
2017-12-16T13:37:38.351Z,24.30
2017-12-16T13:40:06.750Z,24.73
2017-12-16T13:42:35.135Z,25.10
2017-12-16T13:45:03.694Z,24.50
2017-12-16T13:47:32.071Z,25.63
2017-12-16T13:50:00.408Z,24.70
2017-12-16T13:52:28.851Z,23.87
2017-12-16T13:54:57.316Z,24.67
2017-12-16T13:57:25.656Z,24.93
2017-12-16T13:59:54.017Z,24.67
2017-12-16T14:02:22.365Z,23.90
2017-12-16T14:04:50.715Z,22.80
2017-12-16T14:07:19.077Z,23.57
2017-12-16T14:09:47.552Z,21.83
2017-12-16T14:12:15.892Z,23.20
2017-12-16T14:14:44.256Z,24.57
2017-12-16T14:17:12.617Z,24.20
2017-12-16T14:19:40.972Z,25.00
2017-12-16T14:22:09.339Z,24.33
2017-12-16T14:24:37.815Z,29.60
2017-12-16T14:27:06.169Z,27.80
2017-12-16T14:29:34.916Z,29.83
2017-12-16T14:32:03.272Z,23.47
2017-12-16T14:34:31.630Z,24.30
2017-12-16T14:37:00.116Z,25.70
2017-12-16T14:39:28.543Z,24.33
2017-12-16T14:41:56.895Z,22.97
2017-12-16T14:44:25.252Z,22.83
2017-12-16T14:46:53.607Z,23.67
2017-12-16T14:49:22.365Z,21.07
2017-12-16T14:51:50.829Z,19.63
2017-12-16T14:54:19.176Z,22.33
2017-12-16T14:56:47.560Z,21.07
2017-12-16T14:59:16.018Z,21.73
2017-12-16T15:01:44.869Z,21.60
2017-12-16T15:04:13.232Z,22.13
2017-12-16T15:06:41.609Z,22.17
2017-12-16T15:09:09.968Z,21.53
2017-12-16T15:11:38.341Z,22.10
2017-12-16T15:14:06.699Z,20.90
2017-12-16T15:16:35.543Z,21.50
2017-12-16T15:19:04.015Z,20.13
2017-12-16T15:21:32.416Z,21.03
2017-12-16T15:24:00.849Z,19.17
2017-12-16T15:26:29.381Z,19.27
2017-12-16T15:28:57.732Z,19.97
2017-12-16T15:31:26.125Z,20.80
2017-12-16T15:33:54.475Z,18.13
2017-12-16T15:36:22.242Z,19.77
2017-12-16T15:38:50.679Z,19.33
2017-12-16T15:41:19.134Z,19.10
2017-12-16T15:43:47.499Z,19.37
2017-12-16T15:46:16.084Z,19.10
2017-12-16T15:48:44.434Z,19.97
2017-12-16T15:51:12.851Z,18.80
2017-12-16T15:53:41.228Z,20.20
2017-12-16T15:56:09.568Z,19.83
2017-12-16T15:58:37.925Z,18.90
2017-12-16T16:01:06.664Z,17.87
2017-12-16T16:03:35.070Z,20.50
2017-12-16T16:06:03.540Z,19.00
2017-12-16T16:08:31.970Z,19.97
2017-12-16T16:11:00.278Z,19.70
2017-12-16T16:13:28.703Z,20.23
2017-12-16T16:15:57.223Z,20.27
2017-12-16T16:18:25.563Z,19.73
2017-12-16T16:20:54.423Z,18.70
2017-12-16T16:23:22.795Z,20.53
2017-12-16T16:25:51.149Z,19.03
2017-12-16T16:28:19.503Z,19.63
2017-12-16T16:30:48.264Z,25.27
2017-12-16T16:33:16.635Z,18.83
2017-12-16T16:35:44.998Z,22.57
2017-12-16T16:38:13.348Z,21.67
2017-12-16T16:40:41.701Z,25.30
2017-12-16T16:43:10.447Z,23.27
2017-12-16T16:45:38.920Z,22.13
2017-12-16T16:48:07.295Z,22.37
2017-12-16T16:50:35.679Z,22.57
2017-12-16T16:53:04.040Z,21.40
2017-12-16T16:55:32.398Z,21.60
2017-12-16T16:58:00.787Z,21.13
2017-12-16T17:00:29.123Z,20.83
2017-12-16T17:02:57.490Z,20.27
2017-12-16T17:05:25.859Z,20.17
2017-12-16T17:07:54.212Z,20.37
2017-12-16T17:10:22.572Z,21.80
2017-12-16T17:12:50.920Z,21.20
2017-12-16T17:15:19.768Z,21.30
2017-12-16T17:17:48.111Z,20.07
2017-12-16T17:20:16.471Z,21.53
2017-12-16T17:22:45.243Z,20.27
2017-12-16T17:25:13.694Z,19.70
2017-12-16T17:27:42.339Z,18.50
2017-12-16T17:30:10.736Z,18.93
2017-12-16T17:32:39.074Z,19.90
2017-12-16T17:35:07.511Z,21.90
2017-12-16T17:37:35.959Z,18.33
2017-12-16T17:40:04.372Z,19.73
2017-12-16T17:42:32.724Z,18.97
2017-12-16T17:45:01.122Z,19.40
2017-12-16T17:47:29.512Z,20.20
2017-12-16T17:49:57.860Z,19.67
2017-12-16T17:52:25.501Z,19.83
2017-12-16T17:54:54.251Z,19.53
2017-12-16T17:57:22.601Z,17.80
2017-12-16T17:59:50.957Z,17.73
2017-12-16T18:02:19.780Z,17.90
2017-12-16T18:04:48.119Z,17.60
2017-12-16T18:07:16.471Z,18.03
2017-12-16T18:09:44.820Z,18.00
2017-12-16T18:12:13.184Z,18.37
2017-12-16T18:14:41.537Z,17.17
2017-12-16T18:17:09.951Z,18.40
2017-12-16T18:19:38.332Z,16.33
2017-12-16T18:22:06.718Z,14.43
2017-12-16T18:24:35.072Z,19.03
2017-12-16T18:27:03.429Z,18.20
2017-12-16T18:29:32.186Z,17.47
2017-12-16T18:34:34.169Z,24.50
2017-12-16T18:37:02.620Z,23.47
2017-12-16T18:39:30.991Z,22.53
2017-12-16T18:41:59.348Z,28.00
2017-12-16T18:44:27.695Z,46.90
2017-12-16T18:46:56.518Z,33.27
2017-12-16T18:49:24.868Z,40.03
2017-12-16T18:51:53.611Z,31.83
2017-12-16T18:54:21.974Z,21.43
2017-12-16T18:56:50.330Z,22.77
2017-12-16T18:59:18.687Z,32.00
2017-12-16T19:01:47.530Z,32.23
2017-12-16T19:04:15.882Z,20.30
2017-12-16T19:06:44.296Z,20.70
2017-12-16T19:09:12.655Z,18.17
2017-12-16T19:11:41.024Z,18.20
2017-12-16T19:14:09.391Z,19.27
2017-12-16T19:16:37.740Z,19.30
2017-12-16T19:19:06.488Z,16.80
2017-12-16T19:21:34.861Z,18.87
2017-12-16T19:24:03.274Z,17.53
2017-12-16T19:26:31.632Z,16.20
2017-12-16T19:29:00.009Z,16.30
2017-12-16T19:31:28.368Z,17.40
2017-12-16T19:33:56.798Z,15.03
2017-12-16T19:36:25.244Z,18.67
2017-12-16T19:38:53.591Z,17.37
2017-12-16T19:41:21.950Z,16.27
2017-12-16T19:43:50.684Z,18.50
2017-12-16T19:46:19.051Z,16.33
2017-12-16T19:48:47.410Z,15.63
2017-12-16T19:51:15.821Z,15.03
2017-12-16T19:53:44.184Z,16.63
2017-12-16T19:56:12.576Z,16.57
2017-12-16T19:58:40.924Z,15.70
2017-12-16T20:01:09.272Z,14.90
2017-12-16T20:03:37.723Z,17.23
2017-12-16T20:06:06.088Z,15.47
2017-12-16T20:08:34.448Z,16.00
2017-12-16T20:11:02.852Z,17.57
2017-12-16T20:13:31.203Z,16.40
2017-12-16T20:15:59.551Z,17.53
2017-12-16T20:18:28.316Z,15.70
2017-12-16T20:20:56.658Z,17.43
2017-12-16T20:23:25.000Z,17.97
2017-12-16T20:25:53.750Z,18.03
2017-12-16T20:28:22.111Z,18.40
2017-12-16T20:30:50.592Z,18.27
2017-12-16T20:33:18.938Z,17.07
2017-12-16T20:35:47.284Z,16.57
2017-12-16T20:38:15.641Z,17.10
2017-12-16T20:40:44.007Z,18.30
2017-12-16T20:43:12.385Z,19.00
2017-12-16T20:45:40.743Z,19.50
2017-12-16T20:48:09.140Z,18.47
2017-12-16T20:50:37.504Z,18.67
2017-12-16T20:53:05.896Z,17.43
2017-12-16T20:55:34.269Z,17.67
2017-12-16T20:58:02.624Z,16.60
2017-12-16T21:00:30.987Z,19.77
2017-12-16T21:02:59.733Z,19.37
2017-12-16T21:05:28.085Z,19.73
2017-12-16T21:07:56.480Z,21.10
2017-12-16T21:10:24.857Z,18.37
2017-12-16T21:12:53.196Z,18.50
2017-12-16T21:15:22.024Z,18.30
2017-12-16T21:17:50.367Z,18.57
2017-12-16T21:20:19.303Z,17.93
2017-12-16T21:22:47.785Z,17.40
2017-12-16T21:25:16.150Z,16.60
2017-12-16T21:27:44.676Z,16.33
2017-12-16T21:30:13.019Z,16.17
2017-12-16T21:32:41.380Z,16.17
2017-12-16T21:35:09.775Z,15.07
2017-12-16T21:37:38.269Z,15.00
2017-12-16T21:40:06.628Z,16.77
2017-12-16T21:42:34.985Z,15.23
2017-12-16T21:45:03.433Z,16.40
2017-12-16T21:47:31.777Z,15.57
2017-12-16T21:50:00.128Z,14.57
2017-12-16T21:52:28.496Z,14.30
2017-12-16T21:54:56.912Z,15.23
2017-12-16T21:57:25.441Z,15.13
2017-12-16T21:59:54.172Z,14.57
2017-12-16T22:02:22.522Z,16.30
2017-12-16T22:04:50.889Z,15.43
2017-12-16T22:07:19.639Z,14.10
2017-12-16T22:09:48.004Z,15.20
2017-12-16T22:12:16.356Z,13.23
2017-12-16T22:14:44.758Z,12.87
2017-12-16T22:17:13.133Z,14.17
2017-12-16T22:19:41.512Z,13.60
2017-12-16T22:22:09.867Z,12.60
2017-12-16T22:24:38.218Z,13.37
2017-12-16T22:27:07.033Z,14.67
2017-12-16T22:29:35.431Z,13.40
2017-12-16T22:32:03.796Z,13.30
2017-12-16T22:34:32.296Z,14.77
2017-12-16T22:37:01.044Z,13.67
2017-12-16T22:39:29.877Z,14.03
2017-12-16T22:41:58.224Z,14.40
2017-12-16T22:44:26.629Z,14.23
2017-12-16T22:46:55.026Z,12.53
2017-12-16T22:49:23.384Z,12.90
2017-12-16T22:51:51.846Z,14.00
2017-12-16T22:54:20.231Z,12.90
2017-12-16T22:56:48.577Z,13.10
2017-12-16T22:59:17.315Z,13.37
2017-12-16T23:01:45.659Z,12.80
2017-12-16T23:04:14.028Z,12.50
2017-12-16T23:06:42.823Z,12.47
2017-12-16T23:09:11.286Z,11.43
2017-12-16T23:11:39.665Z,12.53
2017-12-16T23:14:08.421Z,11.90
2017-12-16T23:16:36.780Z,12.03
2017-12-16T23:19:05.133Z,11.80
2017-12-16T23:21:33.547Z,11.30
2017-12-16T23:24:01.920Z,12.40
2017-12-16T23:26:30.265Z,11.13
2017-12-16T23:28:58.692Z,11.40
2017-12-16T23:31:27.047Z,10.80
2017-12-16T23:33:55.395Z,12.47
2017-12-16T23:36:23.810Z,12.33
2017-12-16T23:38:52.154Z,10.73
2017-12-16T23:41:20.996Z,11.37
2017-12-16T23:43:49.355Z,10.40
2017-12-16T23:46:17.699Z,10.50
2017-12-16T23:48:46.184Z,10.20
2017-12-16T23:51:14.525Z,9.77
2017-12-16T23:53:42.973Z,9.57
2017-12-16T23:56:11.316Z,9.10
2017-12-16T23:58:40.061Z,9.10
